Poncha Springs, Colorado
Current Conditions -  °F | °C
As of 1:15 PM on Monday 24 Nov 2014 (Local Time) from KANK Reporting Station
Scattered Clouds Scattered Clouds  
Wind Chill: 22°   Ceiling: Unl
Heat Index: 33°   Visibility: 10mi
Dew Point:   Wind: 18mph
Humidity: 34%   Direction: 290°WNW
Pressure: 30.09"   Gusts: 24mph
Location:  38.51°N, 106.08°W
Report Text: KANK 242015Z AUTO 29016G21KT 10SM SCT080 01/M14 A3009 RMK AO1 T00061136
Loading
Personal Weather Stations






























Interactive Weather Map New forecast layout! Learn more

10-Day Weather Forecast

Advertisements
Track Severe Weather on mobile